createdAt,value
2023-04-08T00:00:57.609Z,11.9
2023-04-08T00:02:06.423Z,11.9
2023-04-08T00:03:15.531Z,11.2
2023-04-08T00:04:24.297Z,11.2
2023-04-08T00:05:32.912Z,11.2
2023-04-08T00:06:41.864Z,11.1
2023-04-08T00:07:50.650Z,11.1
2023-04-08T00:08:59.364Z,11.1
2023-04-08T00:10:08.350Z,10.9
2023-04-08T00:11:17.098Z,10.9
2023-04-08T00:12:25.864Z,10.9
2023-04-08T00:13:34.842Z,11.9
2023-04-08T00:14:43.645Z,11.9
2023-04-08T00:15:52.418Z,11.9
2023-04-08T00:17:01.359Z,12.4
2023-04-08T00:18:10.079Z,12.4
2023-04-08T00:19:18.799Z,12.4
2023-04-08T00:20:27.837Z,10.1
2023-04-08T00:21:36.503Z,10.1
2023-04-08T00:22:45.318Z,10.1
2023-04-08T00:23:54.353Z,10.5
2023-04-08T00:25:03.143Z,10.5
2023-04-08T00:26:11.872Z,10.5
2023-04-08T00:27:20.914Z,9.1
2023-04-08T00:28:29.644Z,9.1
2023-04-08T00:29:38.377Z,9.1
2023-04-08T00:30:47.376Z,11.2
2023-04-08T00:31:56.094Z,11.2
2023-04-08T00:33:04.841Z,11.2
2023-04-08T00:34:13.789Z,10
2023-04-08T00:35:22.608Z,10
2023-04-08T00:36:31.323Z,10
2023-04-08T00:37:40.296Z,10.1
2023-04-08T00:38:49.241Z,10.1
2023-04-08T00:39:57.898Z,10.1
2023-04-08T00:41:06.861Z,8.1
2023-04-08T00:42:15.631Z,8.1
2023-04-08T00:43:24.357Z,8.1
2023-04-08T00:44:33.291Z,10.8
2023-04-08T00:45:42.155Z,10.8
2023-04-08T00:46:50.911Z,10.8
2023-04-08T00:47:59.912Z,8.6
2023-04-08T00:49:08.631Z,8.6
2023-04-08T00:50:17.390Z,8.6
2023-04-08T00:51:26.316Z,9.8
2023-04-08T00:52:35.017Z,9.8
2023-04-08T00:53:43.705Z,9.8
2023-04-08T00:54:52.614Z,9.8
2023-04-08T00:56:01.330Z,9.8
2023-04-08T00:57:10.012Z,9.8
2023-04-08T00:58:18.925Z,10.2
2023-04-08T00:59:27.646Z,10.2
2023-04-08T01:00:36.330Z,10.2
2023-04-08T01:01:45.256Z,10.4
2023-04-08T01:02:53.921Z,10.4
2023-04-08T01:04:02.475Z,10.4
2023-04-08T01:05:11.242Z,9.6
2023-04-08T01:06:19.856Z,9.6
2023-04-08T01:07:28.479Z,9.6
2023-04-08T01:08:37.234Z,9.4
2023-04-08T01:09:45.864Z,9.4
2023-04-08T01:10:54.459Z,9.4
2023-04-08T01:12:03.251Z,12.7
2023-04-08T01:13:11.840Z,12.7
2023-04-08T01:14:20.407Z,12.7
2023-04-08T01:15:29.278Z,12.2
2023-04-08T01:16:37.799Z,12.2
2023-04-08T01:17:46.517Z,12.2
2023-04-08T01:18:55.142Z,12.7
2023-04-08T01:20:03.757Z,12.7
2023-04-08T01:21:12.316Z,12.7
2023-04-08T01:22:21.096Z,12.1
2023-04-08T01:23:29.632Z,12.1
2023-04-08T01:24:38.208Z,12.1
2023-04-08T01:25:46.990Z,13.1
2023-04-08T01:26:55.547Z,13.1
2023-04-08T01:28:04.043Z,13.1
2023-04-08T01:29:12.743Z,13.5
2023-04-08T01:30:21.322Z,13.5
2023-04-08T01:31:29.943Z,13.5
2023-04-08T01:32:38.619Z,15
2023-04-08T01:33:47.148Z,15
2023-04-08T01:34:55.665Z,15
2023-04-08T01:36:04.360Z,15
2023-04-08T01:37:12.898Z,15
2023-04-08T01:38:21.416Z,15
2023-04-08T01:39:30.295Z,14.4
2023-04-08T01:40:38.721Z,14.4
2023-04-08T01:41:47.237Z,14.4
2023-04-08T01:42:55.959Z,14
2023-04-08T01:44:04.459Z,14
2023-04-08T01:45:12.993Z,14
2023-04-08T01:46:21.751Z,13.6
2023-04-08T01:47:30.316Z,13.6
2023-04-08T01:48:38.799Z,13.6
2023-04-08T01:49:47.515Z,14.2
2023-04-08T01:50:56.031Z,14.2
2023-04-08T01:52:04.543Z,14.2
2023-04-08T01:53:13.262Z,15.2
2023-04-08T01:54:21.744Z,15.2
2023-04-08T01:55:30.309Z,15.2
2023-04-08T01:56:38.989Z,14
2023-04-08T01:57:47.519Z,14
2023-04-08T01:58:56.053Z,14
2023-04-08T02:00:04.800Z,13.6
2023-04-08T02:01:13.304Z,13.6
2023-04-08T02:02:21.989Z,13.6
2023-04-08T02:03:31.006Z,14.1
2023-04-08T02:04:39.187Z,14.1
2023-04-08T02:05:47.653Z,14.1
2023-04-08T02:06:56.408Z,15.5
2023-04-08T02:08:04.903Z,15.5
2023-04-08T02:09:13.393Z,15.5
2023-04-08T02:10:22.087Z,16.9
2023-04-08T02:11:30.633Z,16.9
2023-04-08T02:12:39.156Z,16.9
2023-04-08T02:13:47.910Z,16.299999
2023-04-08T02:14:56.374Z,16.299999
2023-04-08T02:16:04.913Z,16.299999
2023-04-08T02:17:13.596Z,13.5
2023-04-08T02:18:22.075Z,13.5
2023-04-08T02:19:30.605Z,13.5
2023-04-08T02:20:39.273Z,14.6
2023-04-08T02:21:47.811Z,14.6
2023-04-08T02:22:56.346Z,14.6
2023-04-08T02:24:05.075Z,14.2
2023-04-08T02:25:13.580Z,14.2
2023-04-08T02:26:22.088Z,14.2
2023-04-08T02:27:30.824Z,14.6
2023-04-08T02:28:39.314Z,14.6
2023-04-08T02:29:47.886Z,14.6
2023-04-08T02:30:56.586Z,13.5
2023-04-08T02:32:05.072Z,13.5
2023-04-08T02:33:13.583Z,13.5
2023-04-08T02:34:22.276Z,15.4
2023-04-08T02:35:30.802Z,15.4
2023-04-08T02:36:39.264Z,15.4
2023-04-08T02:37:47.988Z,14.2
2023-04-08T02:38:56.442Z,14.2
2023-04-08T02:40:04.966Z,14.2
2023-04-08T02:41:13.668Z,13.1
2023-04-08T02:42:22.144Z,13.1
2023-04-08T02:43:30.595Z,13.1
2023-04-08T02:44:39.316Z,15.4
2023-04-08T02:45:47.875Z,15.4
2023-04-08T02:46:56.304Z,15.4
2023-04-08T02:48:05.021Z,12.5
2023-04-08T02:49:13.449Z,12.5
2023-04-08T02:50:21.912Z,12.5
2023-04-08T02:51:30.680Z,13.4
2023-04-08T02:52:39.215Z,13.4
2023-04-08T02:53:47.698Z,13.4
2023-04-08T02:54:56.412Z,14.8
2023-04-08T02:56:04.904Z,14.8
2023-04-08T02:57:13.394Z,14.8
2023-04-08T02:58:22.049Z,13.8
2023-04-08T02:59:30.519Z,13.8
2023-04-08T03:00:39.012Z,13.8
2023-04-08T03:01:47.727Z,15
2023-04-08T03:02:56.537Z,15
2023-04-08T03:04:04.718Z,15
2023-04-08T03:05:13.314Z,15.6
2023-04-08T03:06:21.803Z,15.6
2023-04-08T03:07:30.305Z,15.6
2023-04-08T03:08:38.982Z,15.7
2023-04-08T03:09:47.433Z,15.7
2023-04-08T03:10:55.919Z,15.7
2023-04-08T03:12:04.598Z,15.5
2023-04-08T03:13:13.075Z,15.5
2023-04-08T03:14:21.575Z,15.5
2023-04-08T03:15:30.252Z,14.9
2023-04-08T03:16:38.808Z,14.9
2023-04-08T03:17:47.283Z,14.9
2023-04-08T03:18:55.931Z,15.6
2023-04-08T03:20:04.396Z,15.6
2023-04-08T03:21:12.832Z,15.6
2023-04-08T03:22:21.529Z,14.8
2023-04-08T03:23:30.029Z,14.8
2023-04-08T03:24:38.467Z,14.8
2023-04-08T03:25:47.150Z,13.6
2023-04-08T03:26:55.611Z,13.6
2023-04-08T03:28:04.062Z,13.6
2023-04-08T03:29:12.740Z,10.9
2023-04-08T03:30:21.244Z,10.9
2023-04-08T03:31:29.793Z,10.9
2023-04-08T03:32:38.342Z,12
2023-04-08T03:33:46.782Z,12
2023-04-08T03:34:55.228Z,12
2023-04-08T03:36:03.906Z,11.8
2023-04-08T03:37:12.310Z,11.8
2023-04-08T03:38:20.741Z,11.8
2023-04-08T03:39:29.452Z,10.8
2023-04-08T03:40:37.828Z,10.8
2023-04-08T03:41:46.316Z,10.8
2023-04-08T03:42:54.957Z,10.4
2023-04-08T03:44:03.391Z,10.4
2023-04-08T03:45:11.857Z,10.4
2023-04-08T03:46:20.503Z,11.1
2023-04-08T03:47:28.961Z,11.1
2023-04-08T03:48:37.380Z,11.1
2023-04-08T03:49:46.039Z,11.1
2023-04-08T03:50:54.496Z,11.1
2023-04-08T03:52:02.931Z,11.1
2023-04-08T03:53:11.569Z,10.1
2023-04-08T03:54:20.026Z,10.1
2023-04-08T03:55:28.476Z,10.1
2023-04-08T03:56:37.102Z,10.5
2023-04-08T03:57:45.547Z,10.5
2023-04-08T03:58:53.982Z,10.5
2023-04-08T04:00:02.652Z,9
2023-04-08T04:01:11.082Z,9
2023-04-08T04:02:19.667Z,9
2023-04-08T04:03:28.372Z,9.5
2023-04-08T04:04:36.691Z,9.5
2023-04-08T04:05:45.141Z,9.5
2023-04-08T04:06:53.779Z,10.6
2023-04-08T04:08:02.299Z,10.6
2023-04-08T04:09:10.729Z,10.6
2023-04-08T04:10:19.412Z,10
2023-04-08T04:11:27.981Z,10
2023-04-08T04:12:36.414Z,10
2023-04-08T04:13:45.141Z,10.3
2023-04-08T04:14:53.652Z,10.3
2023-04-08T04:16:02.122Z,10.3
2023-04-08T04:17:10.746Z,9.1
2023-04-08T04:18:19.311Z,9.1
2023-04-08T04:19:27.690Z,9.1
2023-04-08T04:20:36.379Z,10.5
2023-04-08T04:21:44.848Z,10.5
2023-04-08T04:22:53.327Z,10.5
2023-04-08T04:24:02.024Z,10.8
2023-04-08T04:25:10.499Z,10.8
2023-04-08T04:26:18.947Z,10.8
2023-04-08T04:27:27.646Z,9.2
2023-04-08T04:28:36.101Z,9.2
2023-04-08T04:29:44.534Z,9.2
2023-04-08T04:30:54.702Z,9.4
2023-04-08T04:32:01.663Z,9.4
2023-04-08T04:33:10.084Z,9.4
2023-04-08T04:34:18.736Z,11.7
2023-04-08T04:35:27.215Z,11.7
2023-04-08T04:36:35.648Z,11.7
2023-04-08T04:37:44.306Z,13.2
2023-04-08T04:38:52.943Z,13.2
2023-04-08T04:40:01.196Z,13.2
2023-04-08T04:41:09.854Z,11.2
2023-04-08T04:42:18.282Z,11.2
2023-04-08T04:43:26.723Z,11.2
2023-04-08T04:44:35.355Z,28.200001
2023-04-08T04:45:43.826Z,28.200001
2023-04-08T04:46:52.296Z,28.200001
2023-04-08T04:48:00.995Z,19.6
2023-04-08T04:49:09.342Z,19.6
2023-04-08T04:50:17.793Z,19.6
2023-04-08T04:51:26.447Z,18
2023-04-08T04:52:34.851Z,18
2023-04-08T04:53:43.281Z,18
2023-04-08T04:54:51.946Z,18.700001
2023-04-08T04:56:00.337Z,18.700001
2023-04-08T04:57:08.805Z,18.700001
2023-04-08T04:58:17.419Z,13.3
2023-04-08T04:59:25.888Z,13.3
2023-04-08T05:00:34.365Z,13.3
2023-04-08T05:01:43.054Z,29.799999
2023-04-08T05:02:51.640Z,29.799999
2023-04-08T05:03:59.817Z,29.799999
2023-04-08T05:05:08.528Z,29.4
2023-04-08T05:06:16.910Z,29.4
2023-04-08T05:07:25.281Z,29.4
2023-04-08T05:08:33.885Z,31.6
2023-04-08T05:09:42.326Z,31.6
2023-04-08T05:10:50.959Z,31.6
2023-04-08T05:11:59.464Z,17.6
2023-04-08T05:13:07.931Z,17.6
2023-04-08T05:14:16.338Z,17.6
2023-04-08T05:15:25.028Z,38.599998
2023-04-08T05:16:33.580Z,38.599998
2023-04-08T05:17:41.952Z,38.599998
2023-04-08T05:18:50.735Z,34.299999
2023-04-08T05:19:59.051Z,34.299999
2023-04-08T05:21:07.491Z,34.299999
2023-04-08T05:22:16.144Z,30.799999
2023-04-08T05:23:24.567Z,30.799999
2023-04-08T05:24:33.046Z,30.799999
2023-04-08T05:25:41.753Z,26.1
2023-04-08T05:26:50.192Z,26.1
2023-04-08T05:27:58.642Z,26.1
2023-04-08T05:29:07.314Z,45
2023-04-08T05:30:15.717Z,45
2023-04-08T05:31:24.232Z,45
2023-04-08T05:32:33.027Z,15.5
2023-04-08T05:33:41.317Z,15.5
2023-04-08T05:34:49.818Z,15.5
2023-04-08T05:35:58.500Z,53
2023-04-08T05:37:06.942Z,53
2023-04-08T05:38:15.411Z,53
2023-04-08T05:39:24.082Z,165.8
2023-04-08T05:40:32.550Z,165.8
2023-04-08T05:41:40.996Z,165.8
2023-04-08T05:42:49.690Z,118.69999
2023-04-08T05:43:58.132Z,118.69999
2023-04-08T05:45:06.623Z,118.69999
2023-04-08T05:46:15.308Z,42.599998
2023-04-08T05:47:23.837Z,42.599998
2023-04-08T05:48:32.228Z,42.599998
2023-04-08T05:49:40.909Z,45.299999
2023-04-08T05:50:49.378Z,45.299999
2023-04-08T05:51:57.831Z,45.299999
2023-04-08T05:53:06.499Z,57.200001
2023-04-08T05:54:14.971Z,57.200001
2023-04-08T05:55:23.430Z,57.200001
2023-04-08T05:56:32.136Z,34.599998
2023-04-08T05:57:40.536Z,34.599998
2023-04-08T05:58:49.132Z,34.599998
2023-04-08T05:59:57.667Z,30.6
2023-04-08T06:01:06.172Z,30.6
2023-04-08T06:02:14.699Z,30.6
2023-04-08T06:03:23.465Z,17.4
2023-04-08T06:04:31.947Z,17.4
2023-04-08T06:05:40.250Z,17.4
2023-04-08T06:06:48.955Z,21
2023-04-08T06:07:57.439Z,21
2023-04-08T06:09:05.882Z,21
2023-04-08T06:10:14.571Z,9.6
2023-04-08T06:11:23.056Z,9.6
2023-04-08T06:12:31.486Z,9.6
2023-04-08T06:13:40.175Z,55.900002
2023-04-08T06:14:48.601Z,55.900002
2023-04-08T06:15:57.044Z,55.900002
2023-04-08T06:17:05.764Z,22.200001
2023-04-08T06:18:14.106Z,22.200001
2023-04-08T06:19:22.565Z,22.200001
2023-04-08T06:20:31.208Z,33.700001
2023-04-08T06:21:39.622Z,33.700001
2023-04-08T06:22:48.086Z,33.700001
2023-04-08T06:23:56.771Z,32.400002
2023-04-08T06:25:05.188Z,32.400002
2023-04-08T06:26:13.621Z,32.400002
2023-04-08T06:27:22.254Z,40.400002
2023-04-08T06:28:30.727Z,40.400002
2023-04-08T06:29:39.708Z,40.400002
2023-04-08T06:30:47.849Z,29.4
2023-04-08T06:31:56.062Z,29.4
2023-04-08T06:33:04.476Z,29.4
2023-04-08T06:34:13.056Z,16.9
2023-04-08T06:35:21.512Z,16.9
2023-04-08T06:36:29.835Z,16.9
2023-04-08T06:37:38.626Z,21.299999
2023-04-08T06:38:46.940Z,21.299999
2023-04-08T06:39:55.388Z,21.299999
2023-04-08T06:41:04.075Z,24.4
2023-04-08T06:42:12.531Z,24.4
2023-04-08T06:43:21.014Z,24.4
2023-04-08T06:44:29.688Z,10
2023-04-08T06:45:38.172Z,10
2023-04-08T06:46:46.628Z,10
2023-04-08T06:47:55.285Z,8.8
2023-04-08T06:49:03.771Z,8.8
2023-04-08T06:50:12.468Z,8.8
2023-04-08T06:51:20.879Z,16.6
2023-04-08T06:52:29.300Z,16.6
2023-04-08T06:53:37.763Z,16.6
2023-04-08T06:54:46.446Z,15.2
2023-04-08T06:55:54.950Z,15.2
2023-04-08T06:57:03.386Z,15.2
2023-04-08T06:58:12.042Z,9.1
2023-04-08T06:59:20.472Z,9.1
2023-04-08T07:00:28.905Z,9.1
2023-04-08T07:01:37.568Z,6.6
2023-04-08T07:02:46.599Z,6.6
2023-04-08T07:03:55.978Z,6.6
2023-04-08T07:05:04.549Z,3.9
2023-04-08T07:06:13.002Z,3.9
2023-04-08T07:07:21.616Z,3.9
2023-04-08T07:08:30.183Z,5.5
2023-04-08T07:09:38.638Z,5.5
2023-04-08T07:10:47.015Z,5.5
2023-04-08T07:11:55.632Z,3.3
2023-04-08T07:13:04.038Z,3.3
2023-04-08T07:14:12.431Z,3.3
2023-04-08T07:15:21.067Z,5.6
2023-04-08T07:16:29.535Z,5.6
2023-04-08T07:17:37.953Z,5.6
2023-04-08T07:18:46.593Z,8.5
2023-04-08T07:19:54.989Z,8.5
2023-04-08T07:21:03.445Z,8.5
2023-04-08T07:22:12.061Z,3.5
2023-04-08T07:23:20.512Z,3.5
2023-04-08T07:24:28.921Z,3.5
2023-04-08T07:25:37.574Z,5.5
2023-04-08T07:26:46.048Z,5.5
2023-04-08T07:27:54.510Z,5.5
2023-04-08T07:29:03.148Z,2.7
2023-04-08T07:30:11.580Z,2.7
2023-04-08T07:31:20.054Z,2.7
2023-04-08T07:32:28.663Z,2.6
2023-04-08T07:33:37.095Z,2.6
2023-04-08T07:34:45.418Z,2.6
2023-04-08T07:35:54.016Z,3.5
2023-04-08T07:37:02.407Z,3.5
2023-04-08T07:38:10.849Z,3.5
2023-04-08T07:39:19.496Z,2.8
2023-04-08T07:40:27.859Z,2.8
2023-04-08T07:41:36.254Z,2.8
2023-04-08T07:42:44.843Z,3.7
2023-04-08T07:43:53.291Z,3.7
2023-04-08T07:45:01.749Z,3.7
2023-04-08T07:46:10.505Z,3.5
2023-04-08T07:47:18.927Z,3.5
2023-04-08T07:48:27.355Z,3.5
2023-04-08T07:49:36.004Z,5.2
2023-04-08T07:51:07.835Z,5.2
2023-04-08T07:51:52.909Z,5.2
2023-04-08T07:53:01.512Z,6.6
2023-04-08T07:54:09.897Z,6.6
2023-04-08T07:55:18.304Z,6.6
2023-04-08T07:56:26.934Z,7.9
2023-04-08T07:57:35.315Z,7.9
2023-04-08T07:58:43.718Z,7.9
2023-04-08T07:59:52.305Z,5.7
2023-04-08T08:01:00.700Z,5.7
2023-04-08T08:02:09.152Z,5.7
2023-04-08T08:03:18.005Z,6.4
2023-04-08T08:04:26.522Z,6.4
2023-04-08T08:05:34.743Z,6.4
2023-04-08T08:06:43.341Z,34.799999
2023-04-08T08:07:51.711Z,34.799999
2023-04-08T08:09:00.106Z,34.799999
2023-04-08T08:10:08.663Z,33
2023-04-08T08:11:17.212Z,33
2023-04-08T08:12:25.475Z,33
2023-04-08T08:13:34.022Z,77.099998
2023-04-08T08:14:42.426Z,77.099998
2023-04-08T08:15:50.880Z,77.099998
2023-04-08T08:16:59.396Z,23.9
2023-04-08T08:18:07.823Z,23.9
2023-04-08T08:19:16.179Z,23.9
2023-04-08T08:20:24.757Z,16.4
2023-04-08T08:21:33.139Z,16.4
2023-04-08T08:22:50.719Z,16.4
2023-04-08T08:23:50.175Z,12.7
2023-04-08T08:24:58.491Z,12.7
2023-04-08T08:26:06.883Z,12.7
2023-04-08T08:27:15.436Z,9.7
2023-04-08T08:28:23.755Z,9.7
2023-04-08T08:29:32.148Z,9.7
2023-04-08T08:30:40.740Z,16.4
2023-04-08T08:31:49.147Z,16.4
2023-04-08T08:32:57.487Z,16.4
2023-04-08T08:34:06.051Z,11.2
2023-04-08T08:35:14.423Z,11.2
2023-04-08T08:36:22.830Z,11.2
2023-04-08T08:37:31.409Z,10.2
2023-04-08T08:38:39.782Z,10.2
2023-04-08T08:39:48.153Z,10.2
2023-04-08T08:40:56.799Z,33.900002
2023-04-08T08:42:05.151Z,33.900002
2023-04-08T08:43:13.622Z,33.900002
2023-04-08T08:44:22.086Z,10.3
2023-04-08T08:45:30.469Z,10.3
2023-04-08T08:46:38.881Z,10.3
2023-04-08T08:47:49.044Z,6.6
2023-04-08T08:48:55.764Z,6.6
2023-04-08T08:50:04.099Z,6.6
2023-04-08T08:51:12.717Z,6.7
2023-04-08T08:52:21.099Z,6.7
2023-04-08T08:53:29.469Z,6.7
2023-04-08T08:54:38.041Z,24.200001
2023-04-08T08:56:13.415Z,24.200001
2023-04-08T08:56:54.807Z,24.200001
2023-04-08T08:58:03.381Z,4.9
2023-04-08T08:59:11.771Z,4.9
2023-04-08T09:00:20.126Z,4.9
2023-04-08T09:01:28.712Z,4.5
2023-04-08T09:02:37.200Z,4.5
2023-04-08T09:03:45.483Z,4.5
2023-04-08T09:04:54.064Z,6.9
2023-04-08T09:06:02.346Z,6.9
2023-04-08T09:07:10.697Z,6.9
2023-04-08T09:08:19.216Z,4.8
2023-04-08T09:09:27.550Z,4.8
2023-04-08T09:10:35.900Z,4.8
2023-04-08T09:11:44.461Z,4.7
2023-04-08T09:12:52.817Z,4.7
2023-04-08T09:14:01.170Z,4.7
2023-04-08T09:15:09.770Z,9.1
2023-04-08T09:16:18.322Z,9.1
2023-04-08T09:17:26.493Z,9.1
2023-04-08T09:18:35.015Z,5.8
2023-04-08T09:19:43.382Z,5.8
2023-04-08T09:20:51.760Z,5.8
2023-04-08T09:22:00.306Z,5.1
2023-04-08T09:23:08.717Z,5.1
2023-04-08T09:24:17.811Z,5.1
2023-04-08T09:25:25.787Z,5.2
2023-04-08T09:26:34.184Z,5.2
2023-04-08T09:27:42.562Z,5.2
2023-04-08T09:28:51.120Z,5.1
2023-04-08T09:29:59.476Z,5.1
2023-04-08T09:31:07.883Z,5.1
2023-04-08T09:32:16.446Z,6
2023-04-08T09:33:24.805Z,6
2023-04-08T09:34:33.206Z,6
2023-04-08T09:35:41.784Z,6
2023-04-08T09:36:50.168Z,6
2023-04-08T09:37:58.541Z,6
2023-04-08T09:39:07.109Z,5.5
2023-04-08T09:40:15.464Z,5.5
2023-04-08T09:41:23.883Z,5.5
2023-04-08T09:42:32.417Z,7.4
2023-04-08T09:43:40.781Z,7.4
2023-04-08T09:44:49.180Z,7.4
2023-04-08T09:45:57.816Z,7.7
2023-04-08T09:47:06.150Z,7.7
2023-04-08T09:48:16.386Z,7.7
2023-04-08T09:49:23.082Z,6.4
2023-04-08T09:50:31.455Z,6.4
2023-04-08T09:51:39.853Z,6.4
2023-04-08T09:52:48.410Z,5.6
2023-04-08T09:53:56.795Z,5.6
2023-04-08T09:55:05.247Z,5.6
2023-04-08T09:56:13.820Z,6.7
2023-04-08T09:57:22.186Z,6.7
2023-04-08T09:58:30.556Z,6.7
2023-04-08T09:59:39.172Z,7.5
2023-04-08T10:00:47.586Z,7.5
2023-04-08T10:01:56.058Z,7.5
2023-04-08T10:03:04.734Z,6.8
2023-04-08T10:04:13.008Z,6.8
2023-04-08T10:05:21.316Z,6.8
2023-04-08T10:06:29.921Z,7.7
2023-04-08T10:07:38.304Z,7.7
2023-04-08T10:08:46.698Z,7.7
2023-04-08T10:09:55.262Z,9
2023-04-08T10:11:03.679Z,9
2023-04-08T10:12:12.009Z,9
2023-04-08T10:13:20.675Z,7.6
2023-04-08T10:14:29.151Z,7.6
2023-04-08T10:15:37.574Z,7.6
2023-04-08T10:16:46.235Z,9.2
2023-04-08T10:17:54.607Z,9.2
2023-04-08T10:19:02.986Z,9.2
2023-04-08T10:20:11.564Z,9.9
2023-04-08T10:21:19.981Z,9.9
2023-04-08T10:22:28.404Z,9.9
2023-04-08T10:23:36.933Z,11
2023-04-08T10:24:45.350Z,11
2023-04-08T10:25:53.716Z,11
2023-04-08T10:27:02.304Z,15.9
2023-04-08T10:28:10.711Z,15.9
2023-04-08T10:29:19.167Z,15.9
2023-04-08T10:30:27.678Z,21.299999
2023-04-08T10:31:36.071Z,21.299999
2023-04-08T10:32:44.478Z,21.299999
2023-04-08T10:33:53.030Z,23.6
2023-04-08T10:35:01.447Z,23.6
2023-04-08T10:36:09.801Z,23.6
2023-04-08T10:37:18.405Z,14.9
2023-04-08T10:38:26.804Z,14.9
2023-04-08T10:39:36.880Z,14.9
2023-04-08T10:40:43.790Z,14.7
2023-04-08T10:41:52.177Z,14.7
2023-04-08T10:43:00.567Z,14.7
2023-04-08T10:44:09.172Z,12.1
2023-04-08T10:45:17.580Z,12.1
2023-04-08T10:46:26.031Z,12.1
2023-04-08T10:47:34.692Z,15.3
2023-04-08T10:48:43.007Z,15.3
2023-04-08T10:49:51.408Z,15.3
2023-04-08T10:51:00.043Z,15.6
2023-04-08T10:52:08.439Z,15.6
2023-04-08T10:53:16.822Z,15.6
2023-04-08T10:54:25.450Z,15.3
2023-04-08T10:55:33.864Z,15.3
2023-04-08T10:56:42.277Z,15.3
2023-04-08T10:57:50.903Z,13.6
2023-04-08T10:58:59.345Z,13.6
2023-04-08T11:00:07.763Z,13.6
2023-04-08T11:01:16.421Z,16.700001
2023-04-08T11:02:24.875Z,16.700001
2023-04-08T11:03:33.348Z,16.700001
2023-04-08T11:04:41.858Z,15.1
2023-04-08T11:05:50.224Z,15.1
2023-04-08T11:06:58.658Z,15.1
2023-04-08T11:08:07.255Z,20.700001
2023-04-08T11:09:15.691Z,20.700001
2023-04-08T11:10:24.114Z,20.700001
2023-04-08T11:11:32.738Z,15.1
2023-04-08T11:12:41.150Z,15.1
2023-04-08T11:13:53.602Z,15.1
2023-04-08T11:14:58.594Z,18.1
2023-04-08T11:16:16.920Z,18.1
2023-04-08T11:17:15.417Z,18.1
2023-04-08T11:18:24.035Z,17.799999
2023-04-08T11:19:32.455Z,17.799999
2023-04-08T11:20:40.857Z,17.799999
2023-04-08T11:21:49.490Z,17.9
2023-04-08T11:22:57.929Z,17.9
2023-04-08T11:24:06.360Z,17.9
2023-04-08T11:25:14.996Z,16.9
2023-04-08T11:26:23.423Z,16.9
2023-04-08T11:27:31.807Z,16.9
2023-04-08T11:28:40.489Z,18.799999
2023-04-08T11:29:48.860Z,18.799999
2023-04-08T11:30:57.315Z,18.799999
2023-04-08T11:32:05.904Z,19.1
2023-04-08T11:33:14.386Z,19.1
2023-04-08T11:34:22.817Z,19.1
2023-04-08T11:35:31.500Z,21.5
2023-04-08T11:36:39.864Z,21.5
2023-04-08T11:37:48.278Z,21.5
2023-04-08T11:38:56.923Z,22.9
2023-04-08T11:40:05.308Z,22.9
2023-04-08T11:41:13.754Z,22.9
2023-04-08T11:42:22.416Z,22.299999
2023-04-08T11:43:30.886Z,22.299999
2023-04-08T11:44:39.318Z,22.299999
2023-04-08T11:45:47.950Z,25
2023-04-08T11:46:56.484Z,25
2023-04-08T11:48:04.978Z,25
2023-04-08T11:49:13.495Z,22.700001
2023-04-08T11:50:21.901Z,22.700001
2023-04-08T11:51:30.327Z,22.700001
2023-04-08T11:52:38.968Z,22.5
2023-04-08T11:53:47.422Z,22.5
2023-04-08T11:54:55.887Z,22.5
2023-04-08T11:56:04.527Z,24.200001
2023-04-08T11:57:12.991Z,24.200001
2023-04-08T11:58:21.452Z,24.200001
2023-04-08T11:59:30.125Z,22.5
2023-04-08T12:00:38.553Z,22.5
2023-04-08T12:01:47.052Z,22.5
2023-04-08T12:02:55.659Z,21.299999
2023-04-08T12:04:04.278Z,21.299999
2023-04-08T12:05:12.575Z,21.299999
2023-04-08T12:06:21.086Z,25.6
2023-04-08T12:07:29.484Z,25.6
2023-04-08T12:08:37.890Z,25.6
2023-04-08T12:09:46.529Z,26.5
2023-04-08T12:10:54.973Z,26.5
2023-04-08T12:12:03.356Z,26.5
2023-04-08T12:13:12.063Z,25.700001
2023-04-08T12:14:20.468Z,25.700001
2023-04-08T12:15:28.915Z,25.700001
2023-04-08T12:16:37.538Z,24.799999
2023-04-08T12:17:45.938Z,24.799999
2023-04-08T12:18:54.349Z,24.799999
2023-04-08T12:20:03.490Z,26.4
2023-04-08T12:21:11.878Z,26.4
2023-04-08T12:22:20.272Z,26.4
2023-04-08T12:23:28.853Z,27.5
2023-04-08T12:24:37.221Z,27.5
2023-04-08T12:25:45.567Z,27.5
2023-04-08T12:26:54.168Z,26.700001
2023-04-08T12:28:02.531Z,26.700001
2023-04-08T12:29:10.892Z,26.700001
2023-04-08T12:30:19.474Z,27.5
2023-04-08T12:31:27.930Z,27.5
2023-04-08T12:32:36.230Z,27.5
2023-04-08T12:33:44.823Z,28
2023-04-08T12:34:53.171Z,28
2023-04-08T12:36:01.576Z,28
2023-04-08T12:37:10.117Z,27.1
2023-04-08T12:38:18.480Z,27.1
2023-04-08T12:39:26.852Z,27.1
2023-04-08T12:40:35.433Z,28.700001
2023-04-08T12:41:43.781Z,28.700001
2023-04-08T12:42:52.214Z,28.700001
2023-04-08T12:44:00.752Z,27.4
2023-04-08T12:45:09.172Z,27.4
2023-04-08T12:46:17.592Z,27.4
2023-04-08T12:47:26.416Z,30.700001
2023-04-08T12:48:34.514Z,30.700001
2023-04-08T12:49:49.169Z,30.700001
2023-04-08T12:50:51.485Z,29.4
2023-04-08T12:51:59.854Z,29.4
2023-04-08T12:53:08.242Z,29.4
2023-04-08T12:54:16.815Z,29.700001
2023-04-08T12:55:25.209Z,29.700001
2023-04-08T12:56:33.575Z,29.700001
2023-04-08T12:57:42.161Z,29.9
2023-04-08T12:58:50.726Z,29.9
2023-04-08T12:59:58.859Z,29.9
2023-04-08T13:01:07.511Z,30.1
2023-04-08T13:02:15.823Z,30.1
2023-04-08T13:03:24.259Z,30.1
2023-04-08T13:04:32.743Z,30
2023-04-08T13:05:43.527Z,30
2023-04-08T13:06:49.478Z,30
2023-04-08T13:07:58.078Z,30.799999
2023-04-08T13:09:06.462Z,30.799999
2023-04-08T13:10:14.843Z,30.799999
2023-04-08T13:11:23.433Z,28.6
2023-04-08T13:12:31.810Z,28.6
2023-04-08T13:13:40.198Z,28.6
2023-04-08T13:14:48.810Z,28.5
2023-04-08T13:15:57.135Z,28.5
2023-04-08T13:17:05.556Z,28.5
2023-04-08T13:18:14.161Z,31
2023-04-08T13:19:22.547Z,31
2023-04-08T13:20:30.929Z,31
2023-04-08T13:21:39.508Z,29.5
2023-04-08T13:22:47.915Z,29.5
2023-04-08T13:23:56.301Z,29.5
2023-04-08T13:25:04.947Z,27.9
2023-04-08T13:26:13.358Z,27.9
2023-04-08T13:27:21.755Z,27.9
2023-04-08T13:28:30.342Z,30.1
2023-04-08T13:29:38.768Z,30.1
2023-04-08T13:30:47.200Z,30.1
2023-04-08T13:31:55.803Z,28.1
2023-04-08T13:33:04.225Z,28.1
2023-04-08T13:34:12.579Z,28.1
2023-04-08T13:35:21.194Z,31
2023-04-08T13:36:29.606Z,31
2023-04-08T13:37:38.011Z,31
2023-04-08T13:38:46.642Z,29.200001
2023-04-08T13:39:55.075Z,29.200001
2023-04-08T13:41:03.475Z,29.200001
2023-04-08T13:42:12.062Z,29.5
2023-04-08T13:43:20.451Z,29.5
2023-04-08T13:44:28.863Z,29.5
2023-04-08T13:45:37.516Z,28.1
2023-04-08T13:46:45.939Z,28.1
2023-04-08T13:47:54.315Z,28.1
2023-04-08T13:49:02.835Z,35.900002
2023-04-08T13:50:11.253Z,35.900002
2023-04-08T13:51:19.658Z,35.900002
2023-04-08T13:52:28.251Z,33.5
2023-04-08T13:53:36.652Z,33.5
2023-04-08T13:54:45.022Z,33.5
2023-04-08T13:55:53.597Z,31.299999
2023-04-08T13:57:01.979Z,31.299999
2023-04-08T13:58:17.422Z,31.299999
2023-04-08T13:59:19.002Z,30.9
2023-04-08T14:00:27.396Z,30.9
2023-04-08T14:01:35.855Z,30.9
2023-04-08T14:02:44.488Z,31
2023-04-08T14:03:52.766Z,31
2023-04-08T14:05:01.162Z,31
2023-04-08T14:06:09.728Z,29.9
2023-04-08T14:07:18.108Z,29.9
2023-04-08T14:08:26.499Z,29.9
2023-04-08T14:09:35.105Z,33
2023-04-08T14:10:43.505Z,33
2023-04-08T14:11:51.890Z,33
2023-04-08T14:13:00.481Z,32.099998
2023-04-08T14:14:09.009Z,32.099998
2023-04-08T14:15:17.390Z,32.099998
2023-04-08T14:16:26.000Z,30.4
2023-04-08T14:17:34.407Z,30.4
2023-04-08T14:18:42.824Z,30.4
2023-04-08T14:19:51.409Z,29.799999
2023-04-08T14:20:59.823Z,29.799999
2023-04-08T14:22:08.208Z,29.799999
2023-04-08T14:23:16.822Z,32.400002
2023-04-08T14:24:25.240Z,32.400002
2023-04-08T14:25:33.635Z,32.400002
2023-04-08T14:26:42.237Z,30.200001
2023-04-08T14:27:57.749Z,30.200001
2023-04-08T14:28:59.023Z,30.200001
2023-04-08T14:30:07.631Z,32.099998
2023-04-08T14:31:16.090Z,32.099998
2023-04-08T14:32:24.479Z,32.099998
2023-04-08T14:33:33.071Z,31.9
2023-04-08T14:34:41.505Z,31.9
2023-04-08T14:35:49.918Z,31.9
2023-04-08T14:36:58.554Z,33.299999
2023-04-08T14:38:07.006Z,33.299999
2023-04-08T14:39:15.466Z,33.299999
2023-04-08T14:40:24.140Z,33.099998
2023-04-08T14:41:32.603Z,33.099998
2023-04-08T14:42:41.090Z,33.099998
2023-04-08T14:43:49.742Z,31.700001
2023-04-08T14:44:58.184Z,31.700001
2023-04-08T14:46:06.669Z,31.700001
2023-04-08T14:47:15.319Z,32.299999
2023-04-08T14:48:23.797Z,32.299999
2023-04-08T14:49:32.230Z,32.299999
2023-04-08T14:50:40.958Z,35.5
2023-04-08T14:51:50.317Z,35.5
2023-04-08T14:52:57.852Z,35.5
2023-04-08T14:54:06.544Z,33.900002
2023-04-08T14:55:15.008Z,33.900002
2023-04-08T14:56:23.492Z,33.900002